Terminal Aerodrome Forecast
Issued by NWS

Home | Current Version | Previous Version | Text Only | Print | Product List | Glossary On
Versions: 1 2 3 4 5 6 7 8 9 10 11 12 13 14 15
000
FTUS46 KLOX 262300 RRA
TAFWJF
TAF
KWJF 262357Z 2700/2724 03010KT P6SM -SHRA BKN070 OVC100
     FM270200 03005KT 5SM -RA BR BKN025 OVC050
     FM271300 VRB04KT P6SM VCSH BKN080 BKN120
     FM271700 07007KT P6SM SCT080
     FM272000 27008KT P6SM SKC=

USA.gov is the U.S. government's official web portal to all federal, state and local government web resources and services.